createdAt,value
2022-11-23T00:00:29.406Z,27.1
2022-11-23T00:01:36.865Z,25.2
2022-11-23T00:02:45.020Z,25.3
2022-11-23T00:03:52.467Z,26.3
2022-11-23T00:04:59.787Z,27.3
2022-11-23T00:06:07.196Z,24.9
2022-11-23T00:07:15.346Z,25.1
2022-11-23T00:08:23.208Z,25.3
2022-11-23T00:09:31.579Z,25.5
2022-11-23T00:10:38.825Z,27.1
2022-11-23T00:11:45.715Z,24.9
2022-11-23T00:12:55.044Z,25.3
2022-11-23T00:14:02.169Z,26.1
2022-11-23T00:15:09.339Z,25.5
2022-11-23T00:16:16.356Z,25.8
2022-11-23T00:17:23.817Z,26.4
2022-11-23T00:18:31.176Z,26.7
2022-11-23T00:19:38.427Z,24.9
2022-11-23T00:20:45.435Z,25
2022-11-23T00:21:54.906Z,26.7
2022-11-23T00:23:02.019Z,25.9
2022-11-23T00:24:09.272Z,24.7
2022-11-23T00:25:16.887Z,25.3
2022-11-23T00:26:24.367Z,24.3
2022-11-23T00:27:32.327Z,26.7
2022-11-23T00:28:39.481Z,24.6
2022-11-23T00:29:46.639Z,25.9
2022-11-23T00:30:53.800Z,25.8
2022-11-23T00:32:00.891Z,25.2
2022-11-23T00:33:07.969Z,26.2
2022-11-23T00:34:15.211Z,25.4
2022-11-23T00:35:22.899Z,26.5
2022-11-23T00:36:29.952Z,26.1
2022-11-23T00:37:37.176Z,26.2
2022-11-23T00:38:44.646Z,26.6
2022-11-23T00:39:51.799Z,26
2022-11-23T00:40:59.123Z,26
2022-11-23T00:42:09.095Z,26.2
2022-11-23T00:43:16.404Z,26.9
2022-11-23T00:44:23.742Z,26.1
2022-11-23T00:45:30.935Z,27
2022-11-23T00:46:38.126Z,27.1
2022-11-23T00:47:45.396Z,26.8
2022-11-23T00:48:52.668Z,26.1
2022-11-23T00:49:59.504Z,25.7
2022-11-23T00:51:07.092Z,27.4
2022-11-23T00:52:14.405Z,27.4
2022-11-23T00:53:21.400Z,26.4
2022-11-23T00:54:28.606Z,27.2
2022-11-23T00:55:35.797Z,27.7
2022-11-23T00:56:42.776Z,27
2022-11-23T00:57:49.908Z,26.9
2022-11-23T00:58:57.422Z,27.5
2022-11-23T01:00:04.825Z,27.4
2022-11-23T01:01:12.470Z,28.2
2022-11-23T01:02:19.660Z,29.5
2022-11-23T01:03:26.928Z,28.1
2022-11-23T01:04:34.280Z,28.3
2022-11-23T01:05:41.666Z,29.5
2022-11-23T01:06:49.142Z,29.3
2022-11-23T01:07:56.444Z,29.5
2022-11-23T01:09:03.931Z,29.6
2022-11-23T01:10:11.133Z,28.5
2022-11-23T01:11:19.023Z,29.3
2022-11-23T01:12:26.241Z,29.6
2022-11-23T01:13:34.492Z,29.7
2022-11-23T01:14:41.651Z,28.4
2022-11-23T01:15:48.776Z,30.1
2022-11-23T01:16:55.943Z,29.5
2022-11-23T01:18:03.047Z,30.4
2022-11-23T01:19:10.162Z,30
2022-11-23T01:20:17.486Z,30.2
2022-11-23T01:21:25.110Z,31.4
2022-11-23T01:22:32.739Z,31.6
2022-11-23T01:23:40.171Z,29.7
2022-11-23T01:24:47.418Z,30.6
2022-11-23T01:25:57.063Z,30.7
2022-11-23T01:27:02.078Z,30.1
2022-11-23T01:28:10.090Z,29.4
2022-11-23T01:29:17.386Z,28.7
2022-11-23T01:30:25.842Z,28.7
2022-11-23T01:31:33.334Z,28.4
2022-11-23T01:32:40.899Z,30.4
2022-11-23T01:33:48.565Z,28.4
2022-11-23T01:34:58.590Z,29.5
2022-11-23T01:36:06.722Z,30
2022-11-23T01:37:17.066Z,28.6
2022-11-23T01:38:24.866Z,29.9
2022-11-23T01:39:32.315Z,29
2022-11-23T01:40:39.299Z,28.6
2022-11-23T01:41:47.465Z,29.5
2022-11-23T01:42:54.918Z,29.2
2022-11-23T01:44:05.090Z,30.8
2022-11-23T01:45:22.583Z,30.2
2022-11-23T01:46:38.192Z,29
2022-11-23T01:47:45.707Z,29.5
2022-11-23T01:48:53.159Z,28.8
2022-11-23T01:50:05.408Z,29.3
2022-11-23T01:51:12.614Z,28.8
2022-11-23T01:52:19.674Z,29.3
2022-11-23T01:53:27.692Z,29
2022-11-23T01:54:35.162Z,30.1
2022-11-23T01:55:42.482Z,30.4
2022-11-23T01:56:49.598Z,31.9
2022-11-23T01:57:56.803Z,32.8
2022-11-23T01:59:04.326Z,31.6
2022-11-23T02:00:11.402Z,32.7
2022-11-23T02:01:18.765Z,31.9
2022-11-23T02:02:25.890Z,31.9
2022-11-23T02:03:36.259Z,31.5
2022-11-23T02:04:44.864Z,30
2022-11-23T02:05:52.282Z,29.5
2022-11-23T02:06:59.466Z,29.4
2022-11-23T02:08:07.034Z,30.8
2022-11-23T02:09:14.247Z,31.1
2022-11-23T02:10:21.279Z,33.7
2022-11-23T02:11:28.415Z,31.1
2022-11-23T02:12:35.650Z,27.9
2022-11-23T02:13:42.864Z,30.9
2022-11-23T02:14:49.712Z,30.2
2022-11-23T02:15:57.025Z,29.6
2022-11-23T02:17:05.343Z,28.5
2022-11-23T02:18:13.370Z,28.7
2022-11-23T02:19:20.942Z,27.8
2022-11-23T02:20:32.251Z,28.9
2022-11-23T02:21:39.850Z,28.5
2022-11-23T02:22:46.859Z,30.5
2022-11-23T02:23:56.975Z,33.1
2022-11-23T02:25:08.333Z,31.7
2022-11-23T02:26:26.430Z,31.4
2022-11-23T02:27:34.066Z,29
2022-11-23T02:28:41.695Z,29.7
2022-11-23T02:29:49.220Z,28.6
2022-11-23T02:30:56.488Z,30
2022-11-23T02:32:04.819Z,28.8
2022-11-23T02:33:12.112Z,31.3
2022-11-23T02:34:19.818Z,29.5
2022-11-23T02:35:30.580Z,32.3
2022-11-23T02:36:38.290Z,30.5
2022-11-23T02:37:48.257Z,29.3
2022-11-23T02:38:55.862Z,30.1
2022-11-23T02:40:03.431Z,29.5
2022-11-23T02:41:11.089Z,28.5
2022-11-23T02:42:19.025Z,30.2
2022-11-23T02:44:49.518Z,29.3
2022-11-23T02:46:08.152Z,28.7
2022-11-23T02:47:15.311Z,28.5
2022-11-23T02:49:35.887Z,29.8
2022-11-23T02:50:45.813Z,29.7
2022-11-23T02:51:53.155Z,30.6
2022-11-23T02:53:01.121Z,30.1
2022-11-23T02:54:09.502Z,33.1
2022-11-23T02:55:17.054Z,36
2022-11-23T02:56:24.967Z,37.7
2022-11-23T02:57:32.205Z,34.9
2022-11-23T02:58:39.698Z,34.5
2022-11-23T02:59:47.095Z,33.7
2022-11-23T03:00:57.821Z,33.3
2022-11-23T03:02:05.238Z,33.4
2022-11-23T03:03:12.703Z,33.7
2022-11-23T03:04:26.011Z,34.1
2022-11-23T03:05:27.825Z,35.6
2022-11-23T03:06:35.578Z,34.5
2022-11-23T03:07:43.177Z,34.1
2022-11-23T03:08:50.706Z,34.2
2022-11-23T03:09:57.854Z,36.7
2022-11-23T03:11:05.006Z,35.8
2022-11-23T03:12:12.270Z,35.8
2022-11-23T03:13:20.127Z,38.8
2022-11-23T03:14:27.387Z,38.8
2022-11-23T03:15:34.869Z,35.6
2022-11-23T03:16:42.369Z,37.8
2022-11-23T03:17:50.059Z,37.5
2022-11-23T03:18:57.650Z,36.3
2022-11-23T03:20:07.771Z,33
2022-11-23T03:21:15.331Z,34.1
2022-11-23T03:22:22.970Z,33.1
2022-11-23T03:23:30.478Z,34.1
2022-11-23T03:24:37.566Z,34.9
2022-11-23T03:25:45.003Z,33.6
2022-11-23T03:26:52.355Z,34.7
2022-11-23T03:27:59.852Z,34.9
2022-11-23T03:29:07.454Z,34.6
2022-11-23T03:30:14.956Z,34.2
2022-11-23T03:31:22.543Z,33.4
2022-11-23T03:32:30.507Z,34.5
2022-11-23T03:33:38.882Z,34.9
2022-11-23T03:34:46.346Z,33.6
2022-11-23T03:35:54.023Z,34.2
2022-11-23T03:37:08.610Z,35.2
2022-11-23T03:38:16.335Z,34.9
2022-11-23T03:39:23.730Z,35.7
2022-11-23T03:40:30.911Z,35.2
2022-11-23T03:41:37.886Z,37.3
2022-11-23T03:42:45.695Z,34.6
2022-11-23T03:43:52.801Z,32.5
2022-11-23T03:45:00.195Z,32.4
2022-11-23T03:46:07.675Z,33.9
2022-11-23T03:47:14.977Z,33.8
2022-11-23T03:48:22.390Z,33.5
2022-11-23T03:49:29.813Z,33
2022-11-23T03:50:43.825Z,36
2022-11-23T03:52:01.502Z,35.1
2022-11-23T03:53:19.226Z,35.2
2022-11-23T03:54:44.238Z,35.8
2022-11-23T03:55:58.946Z,34.6
2022-11-23T03:57:32.540Z,33.4
2022-11-23T03:58:52.266Z,34.7
2022-11-23T04:00:12.594Z,35.3
2022-11-23T04:01:24.506Z,35.2
2022-11-23T04:02:41.300Z,35.1
2022-11-23T04:03:53.621Z,33.6
2022-11-23T04:05:07.925Z,32.1
2022-11-23T04:06:28.374Z,33.9
2022-11-23T04:07:44.514Z,33.4
2022-11-23T04:09:00.494Z,34.9
2022-11-23T04:10:13.450Z,32.8
2022-11-23T04:11:24.826Z,34.5
2022-11-23T04:12:41.653Z,32.3
2022-11-23T04:13:49.957Z,38
2022-11-23T04:15:01.118Z,35.1
2022-11-23T04:16:23.181Z,34.9
2022-11-23T04:17:40.569Z,34.8
2022-11-23T04:18:48.913Z,33.8
2022-11-23T04:20:02.925Z,35.6
2022-11-23T04:21:26.114Z,34.1
2022-11-23T04:22:39.143Z,36
2022-11-23T04:23:47.593Z,36.2
2022-11-23T04:24:59.056Z,35.9
2022-11-23T04:26:10.390Z,35.9
2022-11-23T04:27:18.477Z,35
2022-11-23T04:28:32.571Z,37.1
2022-11-23T04:29:43.661Z,38.8
2022-11-23T04:31:09.557Z,35.8
2022-11-23T04:32:18.183Z,38.6
2022-11-23T04:33:38.465Z,38.8
2022-11-23T04:34:52.982Z,37.4
2022-11-23T04:36:01.550Z,35.3
2022-11-23T04:37:18.505Z,38.2
2022-11-23T04:38:32.239Z,37.9
2022-11-23T04:39:43.561Z,36.5
2022-11-23T04:40:54.782Z,38.4
2022-11-23T04:42:12.526Z,35.6
2022-11-23T04:43:29.679Z,35.2
2022-11-23T04:44:41.249Z,35.9
2022-11-23T04:45:49.417Z,37.1
2022-11-23T04:47:08.025Z,36.7
2022-11-23T04:48:24.393Z,35.4
2022-11-23T04:49:39.429Z,34.5
2022-11-23T04:50:55.404Z,36.6
2022-11-23T04:52:02.885Z,35.2
2022-11-23T04:53:20.418Z,36.2
2022-11-23T04:54:31.025Z,38.1
2022-11-23T04:55:47.682Z,35.5
2022-11-23T04:57:07.676Z,36.6
2022-11-23T04:58:18.619Z,35.8
2022-11-23T04:59:30.894Z,34.9
2022-11-23T05:00:44.118Z,33.3
2022-11-23T05:02:01.557Z,36.5
2022-11-23T05:03:24.017Z,36
2022-11-23T05:04:35.054Z,35.4
2022-11-23T05:05:47.825Z,37.5
2022-11-23T05:07:04.245Z,37.5
2022-11-23T05:08:12.347Z,35.4
2022-11-23T05:09:20.390Z,33.9
2022-11-23T05:10:34.530Z,34.5
2022-11-23T05:11:51.549Z,35.8
2022-11-23T05:12:59.881Z,34.1
2022-11-23T05:14:13.318Z,32.7
2022-11-23T05:15:30.927Z,33.1
2022-11-23T05:16:47.941Z,33.9
2022-11-23T05:18:02.396Z,33.2
2022-11-23T05:19:25.244Z,33.9
2022-11-23T05:20:38.016Z,33.9
2022-11-23T05:22:00.357Z,33.4
2022-11-23T05:23:11.046Z,34.2
2022-11-23T05:24:21.924Z,33
2022-11-23T05:25:36.480Z,31.8
2022-11-23T05:26:44.433Z,34
2022-11-23T05:28:03.613Z,33.2
2022-11-23T05:29:06.762Z,35.1
2022-11-23T05:30:17.918Z,34.1
2022-11-23T05:31:35.456Z,34.9
2022-11-23T05:32:43.588Z,36.3
2022-11-23T05:33:57.617Z,36.6
2022-11-23T05:35:12.092Z,35.3
2022-11-23T05:36:24.364Z,35
2022-11-23T05:37:35.257Z,34.7
2022-11-23T05:38:53.399Z,35.4
2022-11-23T05:40:03.984Z,33.9
2022-11-23T05:41:12.766Z,32
2022-11-23T05:42:24.109Z,33.5
2022-11-23T05:43:32.240Z,33.5
2022-11-23T05:44:41.201Z,34.5
2022-11-23T05:45:49.121Z,35
2022-11-23T05:46:57.188Z,35.6
2022-11-23T05:48:05.367Z,32.1
2022-11-23T05:49:13.644Z,33.7
2022-11-23T05:50:31.105Z,33.3
2022-11-23T05:51:44.677Z,33.6
2022-11-23T05:53:00.513Z,31.8
2022-11-23T05:54:12.257Z,31
2022-11-23T05:55:20.224Z,31.9
2022-11-23T05:56:29.877Z,31.9
2022-11-23T05:57:40.553Z,30.8
2022-11-23T05:58:54.956Z,30.1
2022-11-23T06:00:03.010Z,30.4
2022-11-23T06:01:10.651Z,30.4
2022-11-23T06:02:27.913Z,30.6
2022-11-23T06:03:42.518Z,30.3
2022-11-23T06:04:53.241Z,29.6
2022-11-23T06:06:07.872Z,29.8
2022-11-23T06:07:15.745Z,30.4
2022-11-23T06:08:23.934Z,31.7
2022-11-23T06:09:35.504Z,29.8
2022-11-23T06:10:46.396Z,29.1
2022-11-23T06:11:55.289Z,29.8
2022-11-23T06:13:03.156Z,29.3
2022-11-23T06:14:14.324Z,29.3
2022-11-23T06:15:19.397Z,29.4
2022-11-23T06:16:34.048Z,30.9
2022-11-23T06:17:41.749Z,30.6
2022-11-23T06:18:52.921Z,31
2022-11-23T06:20:00.528Z,30.7
2022-11-23T06:21:12.312Z,30.7
2022-11-23T06:22:31.905Z,30.2
2022-11-23T06:23:46.982Z,29.9
2022-11-23T06:25:01.014Z,31.6
2022-11-23T06:26:11.996Z,32.5
2022-11-23T06:27:20.336Z,32
2022-11-23T06:28:33.896Z,32.4
2022-11-23T06:29:42.964Z,31.2
2022-11-23T06:30:50.412Z,31.6
2022-11-23T06:31:57.291Z,31.5
2022-11-23T06:33:04.448Z,30.8
2022-11-23T06:34:11.780Z,33.9
2022-11-23T06:35:18.773Z,32.2
2022-11-23T06:36:26.440Z,31.2
2022-11-23T06:37:33.625Z,32
2022-11-23T06:38:40.988Z,33
2022-11-23T06:39:48.376Z,32.7
2022-11-23T06:40:55.648Z,29.8
2022-11-23T06:42:23.669Z,32.5
2022-11-23T06:43:09.965Z,31.7
2022-11-23T06:44:17.373Z,31.8
2022-11-23T06:45:25.008Z,30.4
2022-11-23T06:46:32.441Z,31.4
2022-11-23T06:47:39.843Z,30.7
2022-11-23T06:48:46.944Z,30.7
2022-11-23T06:49:54.033Z,32
2022-11-23T06:51:01.177Z,31.8
2022-11-23T06:52:08.204Z,32.9
2022-11-23T06:53:15.593Z,30.7
2022-11-23T06:54:27.118Z,32.8
2022-11-23T06:55:29.677Z,31.8
2022-11-23T06:56:36.845Z,32.1
2022-11-23T06:57:44.076Z,30.6
2022-11-23T06:58:52.034Z,31.9
2022-11-23T06:59:59.364Z,33.3
2022-11-23T07:01:07.420Z,32.7
2022-11-23T07:02:14.524Z,33.6
2022-11-23T07:03:21.837Z,34.4
2022-11-23T07:04:29.789Z,32.3
2022-11-23T07:05:37.064Z,32.3
2022-11-23T07:06:45.913Z,31.4
2022-11-23T07:07:53.947Z,33
2022-11-23T07:09:00.936Z,34.7
2022-11-23T07:10:08.158Z,34.9
2022-11-23T07:11:15.298Z,33.9
2022-11-23T07:12:22.353Z,34.9
2022-11-23T07:13:29.556Z,32.8
2022-11-23T07:14:37.692Z,33.8
2022-11-23T07:15:45.444Z,34.9
2022-11-23T07:16:52.452Z,33.7
2022-11-23T07:17:59.561Z,35.1
2022-11-23T07:19:06.715Z,35.9
2022-11-23T07:20:13.960Z,35.6
2022-11-23T07:21:20.948Z,35.4
2022-11-23T07:22:28.080Z,35.8
2022-11-23T07:23:35.245Z,35
2022-11-23T07:24:46.471Z,36
2022-11-23T07:25:49.636Z,35.5
2022-11-23T07:26:56.795Z,34
2022-11-23T07:28:03.938Z,35.8
2022-11-23T07:29:11.060Z,34.6
2022-11-23T07:30:18.236Z,35
2022-11-23T07:31:25.264Z,32.6
2022-11-23T07:32:32.556Z,34.3
2022-11-23T07:33:40.012Z,34.1
2022-11-23T07:34:50.285Z,37.1
2022-11-23T07:35:57.376Z,35.6
2022-11-23T07:37:07.104Z,40.2
2022-11-23T07:38:18.692Z,65.5
2022-11-23T07:39:55.457Z,48.6
2022-11-23T07:40:42.079Z,44.2
2022-11-23T07:41:51.389Z,39.5
2022-11-23T07:42:56.393Z,37.9
2022-11-23T07:44:03.521Z,37.7
2022-11-23T07:45:10.691Z,37.7
2022-11-23T07:46:18.828Z,37.4
2022-11-23T07:47:25.949Z,37.7
2022-11-23T07:48:36.269Z,35.2
2022-11-23T07:49:40.209Z,38.1
2022-11-23T07:50:47.418Z,37.9
2022-11-23T07:51:57.608Z,35.6
2022-11-23T07:53:04.708Z,39.2
2022-11-23T07:54:11.808Z,38
2022-11-23T07:55:19.919Z,39.8
2022-11-23T07:56:27.144Z,37.6
2022-11-23T07:57:34.180Z,42
2022-11-23T07:58:41.363Z,41.3
2022-11-23T07:59:48.468Z,44.1
2022-11-23T08:00:55.629Z,43.2
2022-11-23T08:02:03.916Z,44.3
2022-11-23T08:03:27.026Z,44.8
2022-11-23T08:04:19.063Z,43.9
2022-11-23T08:05:26.339Z,41.2
2022-11-23T08:06:36.459Z,41.3
2022-11-23T08:07:44.674Z,38
2022-11-23T08:08:51.695Z,38.2
2022-11-23T08:09:58.881Z,39.2
2022-11-23T08:11:07.011Z,37.1
2022-11-23T08:12:14.213Z,37.1
2022-11-23T08:13:21.975Z,39.1
2022-11-23T08:14:28.999Z,37.6
2022-11-23T08:15:37.072Z,39.3
2022-11-23T08:16:46.195Z,38.7
2022-11-23T08:17:53.492Z,40.4
2022-11-23T08:19:01.707Z,38.3
2022-11-23T08:20:09.945Z,37.6
2022-11-23T08:21:16.898Z,38.5
2022-11-23T08:22:24.011Z,39.6
2022-11-23T08:23:31.654Z,42.5
2022-11-23T08:24:38.793Z,40.6
2022-11-23T08:25:46.811Z,41
2022-11-23T08:26:54.023Z,41
2022-11-23T08:28:02.952Z,40.5
2022-11-23T08:29:10.584Z,39.2
2022-11-23T08:30:19.740Z,40
2022-11-23T08:31:27.204Z,40.6
2022-11-23T08:32:34.328Z,40.2
2022-11-23T08:33:41.667Z,41.9
2022-11-23T08:34:48.591Z,40.8
2022-11-23T08:35:55.806Z,41.2
2022-11-23T08:37:03.455Z,41.9
2022-11-23T08:38:10.672Z,40.8
2022-11-23T08:39:18.011Z,42.9
2022-11-23T08:40:26.022Z,43.8
2022-11-23T08:41:32.690Z,44.3
2022-11-23T08:42:39.582Z,47
2022-11-23T08:43:47.318Z,44.4
2022-11-23T08:44:56.165Z,43.5
2022-11-23T08:46:05.758Z,41.4
2022-11-23T08:47:10.154Z,43
2022-11-23T08:48:19.036Z,42.4
2022-11-23T08:49:25.964Z,42.9
2022-11-23T08:50:34.385Z,42.1
2022-11-23T08:51:45.689Z,44.5
2022-11-23T08:52:49.537Z,45.2
2022-11-23T08:54:04.668Z,41.8
2022-11-23T08:55:12.997Z,41.9
2022-11-23T08:56:21.694Z,43
2022-11-23T08:57:29.219Z,42.3
2022-11-23T08:58:37.777Z,43
2022-11-23T08:59:45.658Z,41.8
2022-11-23T09:00:54.330Z,39.4
2022-11-23T09:02:04.314Z,40.8
2022-11-23T09:03:12.553Z,38.8
2022-11-23T09:04:21.106Z,39.9
2022-11-23T09:05:28.626Z,39.5
2022-11-23T09:06:36.261Z,36.6
2022-11-23T09:07:44.068Z,37.8
2022-11-23T09:08:51.806Z,39.3
2022-11-23T09:09:59.001Z,38.5
2022-11-23T09:11:06.258Z,38.8
2022-11-23T09:12:14.141Z,37.6
2022-11-23T09:13:22.066Z,34
2022-11-23T09:14:30.262Z,37
2022-11-23T09:15:38.536Z,35.6
2022-11-23T09:16:46.088Z,37.1
2022-11-23T09:17:54.269Z,36.5
2022-11-23T09:19:01.639Z,35.2
2022-11-23T09:20:08.953Z,33.9
2022-11-23T09:21:16.738Z,37.5
2022-11-23T09:22:24.174Z,37
2022-11-23T09:23:31.094Z,34.1
2022-11-23T09:24:38.707Z,35.2
2022-11-23T09:25:46.065Z,35.3
2022-11-23T09:26:53.041Z,33.9
2022-11-23T09:28:00.355Z,35.2
2022-11-23T09:29:07.458Z,35.8
2022-11-23T09:30:14.579Z,35.1
2022-11-23T09:31:21.701Z,35.7
2022-11-23T09:32:29.614Z,34.3
2022-11-23T09:33:37.200Z,34
2022-11-23T09:34:45.302Z,33.6
2022-11-23T09:35:52.218Z,32.6
2022-11-23T09:36:59.572Z,30.8
2022-11-23T09:38:06.723Z,33.8
2022-11-23T09:39:13.852Z,33.7
2022-11-23T09:40:20.843Z,33.1
2022-11-23T09:41:28.744Z,32.3
2022-11-23T09:42:43.740Z,33.2
2022-11-23T09:44:01.055Z,30.6
2022-11-23T09:45:16.374Z,27.3
2022-11-23T09:46:36.801Z,29.5
2022-11-23T09:47:50.027Z,25.7
2022-11-23T09:49:06.479Z,27
2022-11-23T09:50:18.996Z,28
2022-11-23T09:51:31.214Z,27
2022-11-23T09:52:39.359Z,27.8
2022-11-23T09:53:47.513Z,26.5
2022-11-23T09:55:00.435Z,26
2022-11-23T09:56:12.899Z,27
2022-11-23T09:57:28.165Z,25.2
2022-11-23T09:58:35.412Z,27.1
2022-11-23T09:59:43.006Z,27.6
2022-11-23T10:00:58.292Z,26.8
2022-11-23T10:02:08.456Z,24.9
2022-11-23T10:03:20.816Z,27.9
2022-11-23T10:04:28.016Z,28.4
2022-11-23T10:05:38.412Z,28.6
2022-11-23T10:06:47.176Z,26.9
2022-11-23T10:07:57.933Z,26.3
2022-11-23T10:09:10.741Z,24.7
2022-11-23T10:10:23.049Z,24.8
2022-11-23T10:11:40.523Z,27.1
2022-11-23T10:12:58.997Z,25.7
2022-11-23T10:14:16.535Z,26.2
2022-11-23T10:15:33.760Z,25.9
2022-11-23T10:16:45.508Z,25.6
2022-11-23T10:17:55.850Z,24.6
2022-11-23T10:19:12.353Z,23.2
2022-11-23T10:20:28.005Z,23.9
2022-11-23T10:21:46.063Z,24.5
2022-11-23T10:22:54.865Z,23.5
2022-11-23T10:24:04.936Z,23.5
2022-11-23T10:25:12.309Z,24
2022-11-23T10:26:19.451Z,24.9
2022-11-23T10:27:33.018Z,22.6
2022-11-23T10:28:40.534Z,24.8
2022-11-23T10:29:51.316Z,23.9
2022-11-23T10:31:01.913Z,23.4
2022-11-23T10:32:17.661Z,25.3
2022-11-23T10:33:24.960Z,24.5
2022-11-23T10:34:32.687Z,24.1
2022-11-23T10:35:50.009Z,23.4
2022-11-23T10:36:57.032Z,24.3
2022-11-23T10:38:04.548Z,24.4
2022-11-23T10:39:22.645Z,24.3
2022-11-23T10:40:30.017Z,24.9
2022-11-23T10:41:38.476Z,24.4
2022-11-23T10:42:45.379Z,24.3
2022-11-23T10:43:52.826Z,25.2
2022-11-23T10:45:08.026Z,25.3
2022-11-23T10:46:23.378Z,23.1
2022-11-23T10:47:33.646Z,24.8
2022-11-23T10:48:41.105Z,24.2
2022-11-23T10:49:49.139Z,24.7
2022-11-23T10:50:56.227Z,25.7
2022-11-23T10:52:06.574Z,24.2
2022-11-23T10:53:22.811Z,24.4
2022-11-23T10:54:30.807Z,25.7
2022-11-23T10:55:42.692Z,24.6
2022-11-23T10:56:57.678Z,25.3
2022-11-23T10:58:05.078Z,25.3
2022-11-23T10:59:12.334Z,24.8
2022-11-23T11:00:31.053Z,24.6
2022-11-23T11:01:37.126Z,25.1
2022-11-23T11:02:44.256Z,24.9
2022-11-23T11:03:55.503Z,25
2022-11-23T11:05:02.692Z,25.6
2022-11-23T11:06:20.444Z,25.7
2022-11-23T11:07:32.606Z,25.9
2022-11-23T11:08:39.991Z,25.8
2022-11-23T11:10:00.558Z,25.9
2022-11-23T11:11:10.984Z,26.2
2022-11-23T11:12:23.013Z,24.3
2022-11-23T11:13:33.570Z,26.4
2022-11-23T11:14:46.223Z,25.8
2022-11-23T11:15:58.193Z,26.2
2022-11-23T11:17:05.246Z,25.3
2022-11-23T11:18:13.603Z,25.7
2022-11-23T11:19:20.531Z,24.8
2022-11-23T11:20:33.284Z,25.6
2022-11-23T11:21:41.106Z,26.6
2022-11-23T11:22:49.042Z,25.1
2022-11-23T11:23:58.378Z,27
2022-11-23T11:25:05.482Z,25.3
2022-11-23T11:26:12.582Z,25.8
2022-11-23T11:27:20.464Z,25.7
2022-11-23T11:28:28.122Z,26.7
2022-11-23T11:29:40.715Z,25.3
2022-11-23T11:30:47.609Z,26.6
2022-11-23T11:31:54.989Z,26.4
2022-11-23T11:33:12.722Z,26.5
2022-11-23T11:34:25.173Z,25.6
2022-11-23T11:35:32.513Z,25.4
2022-11-23T11:36:39.775Z,25
2022-11-23T11:37:53.300Z,25.5
2022-11-23T11:39:19.697Z,24.6
2022-11-23T11:40:11.423Z,23.9
2022-11-23T11:41:21.764Z,23.5
2022-11-23T11:42:29.181Z,21
2022-11-23T11:43:39.761Z,21.9
2022-11-23T11:44:49.903Z,21.5
2022-11-23T11:46:21.716Z,22
2022-11-23T11:47:06.986Z,22.1
2022-11-23T11:48:20.715Z,23.6
2022-11-23T11:49:27.787Z,22.1
2022-11-23T11:50:35.027Z,22.4
2022-11-23T11:51:42.632Z,22.5
2022-11-23T11:52:49.928Z,23
2022-11-23T11:53:58.797Z,22.5
2022-11-23T11:55:16.776Z,23.2
2022-11-23T11:56:27.220Z,23.6
2022-11-23T11:57:34.644Z,23.7
2022-11-23T11:58:52.064Z,22.8
2022-11-23T12:00:02.033Z,22.3
2022-11-23T12:01:09.212Z,22.9
2022-11-23T12:02:22.594Z,22.6
2022-11-23T12:03:29.660Z,22.7
2022-11-23T12:04:42.435Z,22.8
2022-11-23T12:05:59.619Z,22.5
2022-11-23T12:07:09.343Z,21
2022-11-23T12:08:22.179Z,22
2022-11-23T12:09:41.139Z,22
2022-11-23T12:10:48.828Z,22.4
2022-11-23T12:11:58.744Z,21.5
2022-11-23T12:13:06.156Z,23.1
2022-11-23T12:14:19.526Z,21.9
2022-11-23T12:15:48.128Z,22.4
2022-11-23T12:16:39.211Z,22.6
2022-11-23T12:17:54.724Z,22.6
2022-11-23T12:19:11.208Z,21.5
2022-11-23T12:20:28.784Z,22.7
2022-11-23T12:21:41.065Z,20.7
2022-11-23T12:22:58.517Z,20.7
2022-11-23T12:24:16.124Z,21.5
2022-11-23T12:25:31.322Z,21.4
2022-11-23T12:26:41.246Z,21.6
2022-11-23T12:27:59.424Z,20.5
2022-11-23T12:29:11.745Z,21.9
2022-11-23T12:30:22.075Z,20.8
2022-11-23T12:31:34.365Z,21
2022-11-23T12:32:49.926Z,18.1
2022-11-23T12:34:07.413Z,20.8
2022-11-23T12:35:19.943Z,19.5
2022-11-23T12:36:39.411Z,19.6
2022-11-23T12:37:54.549Z,20.1
2022-11-23T12:39:11.824Z,19.9
2022-11-23T12:40:30.003Z,19.9
2022-11-23T12:41:48.320Z,20.9
2022-11-23T12:43:10.459Z,20.4
2022-11-23T12:44:28.181Z,20.7
2022-11-23T12:45:44.319Z,21.6
2022-11-23T12:46:57.728Z,20
2022-11-23T12:48:10.695Z,20.3
2022-11-23T12:49:28.866Z,20.9
2022-11-23T12:50:39.707Z,21.1
2022-11-23T12:51:52.323Z,21.7
2022-11-23T12:53:11.394Z,19.2
2022-11-23T12:54:24.147Z,19.8
2022-11-23T12:55:41.827Z,19.8
2022-11-23T12:56:54.323Z,20.1
2022-11-23T12:58:12.406Z,19.5
2022-11-23T12:59:20.319Z,20.2
2022-11-23T13:00:28.284Z,20.2
2022-11-23T13:01:38.656Z,20.6
2022-11-23T13:02:46.102Z,19.7
2022-11-23T13:04:02.711Z,20.1
2022-11-23T13:05:15.158Z,19.6
2022-11-23T13:06:33.367Z,19.2
2022-11-23T13:07:49.226Z,19.7
2022-11-23T13:09:04.214Z,19.5
2022-11-23T13:10:20.340Z,18.4
2022-11-23T13:11:32.598Z,19.2
2022-11-23T13:12:48.869Z,18.1
2022-11-23T13:14:04.162Z,18.8
2022-11-23T13:15:19.391Z,18.8
2022-11-23T13:16:32.849Z,18.8
2022-11-23T13:17:46.223Z,18.1
2022-11-23T13:19:04.588Z,18.8
2022-11-23T13:20:19.219Z,18.2
2022-11-23T13:21:34.582Z,18.6
2022-11-23T13:22:48.230Z,17.5
2022-11-23T13:23:57.473Z,18.1
2022-11-23T13:25:04.851Z,19.1
2022-11-23T13:26:16.934Z,16.9
2022-11-23T13:27:31.363Z,18.7
2022-11-23T13:28:44.619Z,18.5
2022-11-23T13:29:51.578Z,18.6
2022-11-23T13:31:14.356Z,19.3
2022-11-23T13:32:17.566Z,19.1
2022-11-23T13:33:36.985Z,19.1
2022-11-23T13:34:39.645Z,18
2022-11-23T13:35:47.779Z,19.1
2022-11-23T13:37:12.015Z,19.4
2022-11-23T13:38:01.975Z,19.6
2022-11-23T13:39:16.947Z,18.6
2022-11-23T13:40:32.555Z,19.1
2022-11-23T13:41:40.028Z,19
2022-11-23T13:42:55.032Z,17.7
2022-11-23T13:44:07.226Z,19.6
2022-11-23T13:45:22.434Z,18.7
2022-11-23T13:46:35.293Z,20.1
2022-11-23T13:47:43.901Z,19.5
2022-11-23T13:48:59.597Z,19.1
2022-11-23T13:50:07.640Z,19.7
2022-11-23T13:51:20.036Z,18.7
2022-11-23T13:52:32.154Z,19.1
2022-11-23T13:53:39.380Z,20
2022-11-23T13:54:46.883Z,19.8
2022-11-23T13:56:00.513Z,19
2022-11-23T13:57:18.107Z,20.1
2022-11-23T13:58:25.198Z,19.3
2022-11-23T13:59:32.536Z,19.5
2022-11-23T14:00:39.577Z,20.5
2022-11-23T14:01:54.961Z,19.5
2022-11-23T14:03:10.102Z,20.6
2022-11-23T14:04:27.403Z,19.2
2022-11-23T14:05:36.309Z,19.9
2022-11-23T14:06:51.634Z,20.4
2022-11-23T14:08:01.834Z,20
2022-11-23T14:09:10.590Z,19.5
2022-11-23T14:10:21.666Z,20
2022-11-23T14:11:29.931Z,20.2
2022-11-23T14:12:39.460Z,18.6
2022-11-23T14:13:54.890Z,20
2022-11-23T14:15:03.106Z,19.9
2022-11-23T14:16:15.848Z,19.4
2022-11-23T14:17:23.524Z,19.6
2022-11-23T14:18:41.377Z,19.8
2022-11-23T14:19:53.982Z,19.5
2022-11-23T14:21:06.216Z,18.4
2022-11-23T14:22:16.518Z,19.1
2022-11-23T14:23:28.997Z,19.5
2022-11-23T14:24:46.244Z,18.7
2022-11-23T14:26:05.289Z,19.6
2022-11-23T14:27:45.490Z,18.6
2022-11-23T14:28:35.866Z,18.7
2022-11-23T14:29:43.022Z,18.3
2022-11-23T14:30:56.402Z,18.3
2022-11-23T14:32:08.916Z,18.6
2022-11-23T14:33:21.404Z,18
2022-11-23T14:34:38.754Z,17.8
2022-11-23T14:35:52.626Z,17.8
2022-11-23T14:37:07.750Z,18.4
2022-11-23T14:38:16.856Z,17.4
2022-11-23T14:39:34.200Z,17.6
2022-11-23T14:40:52.436Z,17.8
2022-11-23T14:42:07.864Z,17.4
2022-11-23T14:43:15.119Z,19.4
2022-11-23T14:44:24.740Z,18.9
2022-11-23T14:45:31.774Z,18
2022-11-23T14:46:38.960Z,17.7
2022-11-23T14:47:56.440Z,19
2022-11-23T14:49:14.815Z,18.4
2022-11-23T14:50:22.178Z,18.5
2022-11-23T14:51:29.433Z,18.8
2022-11-23T14:52:36.752Z,19.5
2022-11-23T14:53:54.248Z,18.9
2022-11-23T14:55:02.740Z,18.6
2022-11-23T14:56:10.167Z,19.4
2022-11-23T14:57:25.375Z,19.9
2022-11-23T14:58:32.824Z,18.7
2022-11-23T14:59:40.904Z,19.8
2022-11-23T15:00:48.429Z,19.1
2022-11-23T15:01:56.303Z,19.2
2022-11-23T15:03:21.045Z,19.1
2022-11-23T15:04:17.321Z,19.7
2022-11-23T15:05:30.402Z,18.9
2022-11-23T15:06:42.305Z,20.8
2022-11-23T15:07:45.154Z,20
2022-11-23T15:09:01.334Z,20.7
2022-11-23T15:10:11.467Z,20.3
2022-11-23T15:11:25.040Z,20.1
2022-11-23T15:12:32.266Z,20.3
2022-11-23T15:13:44.350Z,20.2
2022-11-23T15:14:54.161Z,20
2022-11-23T15:16:01.331Z,21.2
2022-11-23T15:17:08.475Z,20.3
2022-11-23T15:18:19.498Z,20.3
2022-11-23T15:19:32.450Z,20.9
2022-11-23T15:20:40.098Z,21.3
2022-11-23T15:21:47.900Z,20.5
2022-11-23T15:22:55.768Z,20
2022-11-23T15:24:04.013Z,20.3
2022-11-23T15:25:13.928Z,20.6
2022-11-23T15:26:42.308Z,20.5
2022-11-23T15:27:28.574Z,19.8
2022-11-23T15:28:35.985Z,19.4
2022-11-23T15:29:43.208Z,20.8
2022-11-23T15:30:58.711Z,20.7
2022-11-23T15:32:29.056Z,20.3
2022-11-23T15:33:22.314Z,20.3
2022-11-23T15:34:29.649Z,21.4
2022-11-23T15:35:38.272Z,21.4
2022-11-23T15:36:45.563Z,20.1
2022-11-23T15:37:53.777Z,22.1
2022-11-23T15:39:00.881Z,21.8
2022-11-23T15:40:07.901Z,22.9
2022-11-23T15:41:20.697Z,23.3
2022-11-23T15:42:27.989Z,23.2